KFXY/FXY METAR and TAF weather

Enter ICAO airport designator
Station Type Date Time Source
KFXY METAR 2019/06/17 04:35 UTC NOAA

KFXY 170435Z AUTO 12006KT 10SM CLR 17/17 A2995 RMK AO2


Station Type Date Time Source
KFXY Decoded METAR 2019/06/17 04:35 UTC NOAA

Station name not available
Jun 17, 2019 - 12:35 AM EDT / 2019.06.17 0435 UTC
Wind: from the ESE (120 degrees) at 7 MPH (6 KT):0
Visibility: 10 mile(s):0
Sky conditions: clear
Temperature: 62 F (17 C)
Dew Point: 62 F (17 C)
Relative Humidity: 100%
Pressure (altimeter): 29.95 in. Hg (1014 hPa)
ob: KFXY 170435Z AUTO 12006KT 10SM CLR 17/17 A2995 RMK AO2
cycle: 4

Station Type Date Time Source
KFXY TAF UTC NOAA

Error!

Example: see airport list